sensor_id;sensor_type;location;lat;lon;timestamp;temperature;humidity
73833;SHT30;62179;48.444;-4.464;2022-12-18T05:46:46;6.20;98.24
73833;SHT30;62179;48.444;-4.464;2022-12-18T05:49:11;6.28;98.30
73833;SHT30;62179;48.444;-4.464;2022-12-18T05:51:37;6.37;98.27
73833;SHT30;62179;48.444;-4.464;2022-12-18T05:54:02;6.47;98.28
73833;SHT30;62179;48.444;-4.464;2022-12-18T05:56:28;6.54;98.28
73833;SHT30;62179;48.444;-4.464;2022-12-18T05:58:54;6.59;98.22
73833;SHT30;62179;48.444;-4.464;2022-12-18T06:01:25;6.65;98.12
73833;SHT30;62179;48.444;-4.464;2022-12-18T06:03:51;6.72;98.10
73833;SHT30;62179;48.444;-4.464;2022-12-18T06:06:20;6.77;97.95
73833;SHT30;62179;48.444;-4.464;2022-12-18T06:08:46;6.78;97.69
73833;SHT30;62179;48.444;-4.464;2022-12-18T06:11:12;6.79;97.88
73833;SHT30;62179;48.444;-4.464;2022-12-18T06:13:38;6.81;97.79
73833;SHT30;62179;48.444;-4.464;2022-12-18T06:16:07;6.84;97.61
73833;SHT30;62179;48.444;-4.464;2022-12-18T06:18:33;6.81;97.57
73833;SHT30;62179;48.444;-4.464;2022-12-18T06:20:59;6.84;97.68
73833;SHT30;62179;48.444;-4.464;2022-12-18T06:23:25;6.84;97.61
73833;SHT30;62179;48.444;-4.464;2022-12-18T06:25:51;6.88;97.73
73833;SHT30;62179;48.444;-4.464;2022-12-18T06:28:17;6.88;97.58
73833;SHT30;62179;48.444;-4.464;2022-12-18T06:30:47;6.88;97.57
73833;SHT30;62179;48.444;-4.464;2022-12-18T06:33:13;6.85;97.61
73833;SHT30;62179;48.444;-4.464;2022-12-18T06:35:39;6.87;97.70
73833;SHT30;62179;48.444;-4.464;2022-12-18T06:38:05;6.87;98.75
73833;SHT30;62179;48.444;-4.464;2022-12-18T06:40:30;6.88;99.46
73833;SHT30;62179;48.444;-4.464;2022-12-18T06:42:56;6.88;99.55
73833;SHT30;62179;48.444;-4.464;2022-12-18T06:45:22;6.92;99.46
73833;SHT30;62179;48.444;-4.464;2022-12-18T06:47:47;6.95;99.41
73833;SHT30;62179;48.444;-4.464;2022-12-18T06:50:13;6.99;99.40
73833;SHT30;62179;48.444;-4.464;2022-12-18T06:52:39;7.05;99.28
73833;SHT30;62179;48.444;-4.464;2022-12-18T06:55:06;7.08;99.28
73833;SHT30;62179;48.444;-4.464;2022-12-18T06:57:32;7.10;99.31
73833;SHT30;62179;48.444;-4.464;2022-12-18T06:59:57;7.13;99.36
73833;SHT30;62179;48.444;-4.464;2022-12-18T07:02:23;7.19;99.33
73833;SHT30;62179;48.444;-4.464;2022-12-18T07:04:48;7.24;99.24
73833;SHT30;62179;48.444;-4.464;2022-12-18T07:07:15;7.31;99.18
73833;SHT30;62179;48.444;-4.464;2022-12-18T07:09:40;7.36;99.10
73833;SHT30;62179;48.444;-4.464;2022-12-18T07:12:06;7.38;99.06
73833;SHT30;62179;48.444;-4.464;2022-12-18T07:14:33;7.42;99.04
73833;SHT30;62179;48.444;-4.464;2022-12-18T07:16:58;7.44;98.93
73833;SHT30;62179;48.444;-4.464;2022-12-18T07:19:24;7.51;98.77
73833;SHT30;62179;48.444;-4.464;2022-12-18T07:21:50;7.58;98.80
73833;SHT30;62179;48.444;-4.464;2022-12-18T07:24:16;7.60;99.33
73833;SHT30;62179;48.444;-4.464;2022-12-18T07:26:41;7.66;99.49
73833;SHT30;62179;48.444;-4.464;2022-12-18T07:29:07;7.73;99.60
73833;SHT30;62179;48.444;-4.464;2022-12-18T07:31:33;7.81;99.63
73833;SHT30;62179;48.444;-4.464;2022-12-18T07:33:58;7.91;99.68
73833;SHT30;62179;48.444;-4.464;2022-12-18T07:36:23;8.03;99.69
73833;SHT30;62179;48.444;-4.464;2022-12-18T07:38:50;8.16;99.64
73833;SHT30;62179;48.444;-4.464;2022-12-18T07:41:16;8.28;99.61
73833;SHT30;62179;48.444;-4.464;2022-12-18T07:43:43;8.37;99.60
73833;SHT30;62179;48.444;-4.464;2022-12-18T07:46:10;8.47;99.63
73833;SHT30;62179;48.444;-4.464;2022-12-18T07:48:36;8.53;99.57
73833;SHT30;62179;48.444;-4.464;2022-12-18T07:51:05;8.61;99.52
73833;SHT30;62179;48.444;-4.464;2022-12-18T10:39:24;10.68;93.55
73833;SHT30;62179;48.444;-4.464;2022-12-18T10:42:10;10.68;93.57
73833;SHT30;62179;48.444;-4.464;2022-12-18T10:44:37;10.68;93.56
73833;SHT30;62179;48.444;-4.464;2022-12-18T10:47:04;10.63;93.54
73833;SHT30;62179;48.444;-4.464;2022-12-18T10:49:33;10.66;93.53
73833;SHT30;62179;48.444;-4.464;2022-12-18T10:52:25;10.68;93.54
73833;SHT30;62179;48.444;-4.464;2022-12-18T10:55:17;10.65;93.57
73833;SHT30;62179;48.444;-4.464;2022-12-18T10:58:25;10.69;93.56
73833;SHT30;62179;48.444;-4.464;2022-12-18T11:03:43;10.69;93.57
73833;SHT30;62179;48.444;-4.464;2022-12-18T11:08:36;10.72;93.62
73833;SHT30;62179;48.444;-4.464;2022-12-18T11:11:22;10.73;93.61
73833;SHT30;62179;48.444;-4.464;2022-12-18T11:14:12;10.73;93.63
73833;SHT30;62179;48.444;-4.464;2022-12-18T11:16:55;10.76;93.59
73833;SHT30;62179;48.444;-4.464;2022-12-18T11:19:34;10.79;93.58
73833;SHT30;62179;48.444;-4.464;2022-12-18T11:22:19;10.77;93.59
73833;SHT30;62179;48.444;-4.464;2022-12-18T11:24:53;10.79;93.60
73833;SHT30;62179;48.444;-4.464;2022-12-18T11:27:20;10.76;93.61
73833;SHT30;62179;48.444;-4.464;2022-12-18T11:29:49;10.77;93.62
73833;SHT30;62179;48.444;-4.464;2022-12-18T11:34:46;10.76;93.62
73833;SHT30;62179;48.444;-4.464;2022-12-18T11:37:14;10.80;93.58
73833;SHT30;62179;48.444;-4.464;2022-12-18T11:39:56;10.82;93.56
73833;SHT30;62179;48.444;-4.464;2022-12-18T11:42:44;10.77;93.55
73833;SHT30;62179;48.444;-4.464;2022-12-18T11:45:33;10.79;93.58
73833;SHT30;62179;48.444;-4.464;2022-12-18T11:48:17;10.76;93.57
73833;SHT30;62179;48.444;-4.464;2022-12-18T11:50:53;10.83;93.58
73833;SHT30;62179;48.444;-4.464;2022-12-18T11:53:19;10.84;93.69
73833;SHT30;62179;48.444;-4.464;2022-12-18T12:01:18;10.88;93.74
73833;SHT30;62179;48.444;-4.464;2022-12-18T12:14:47;10.89;93.56
73833;SHT30;62179;48.444;-4.464;2022-12-18T12:17:35;10.88;93.46
73833;SHT30;62179;48.444;-4.464;2022-12-18T12:20:22;10.90;93.44
73833;SHT30;62179;48.444;-4.464;2022-12-18T12:25:25;10.93;93.56
73833;SHT30;62179;48.444;-4.464;2022-12-18T12:28:19;10.96;93.69
73833;SHT30;62179;48.444;-4.464;2022-12-18T12:30:56;10.96;93.71
73833;SHT30;62179;48.444;-4.464;2022-12-18T12:39:17;10.96;93.86
73833;SHT30;62179;48.444;-4.464;2022-12-18T12:41:46;10.93;94.03
73833;SHT30;62179;48.444;-4.464;2022-12-18T12:44:42;10.93;94.09
73833;SHT30;62179;48.444;-4.464;2022-12-18T12:47:18;10.95;94.10
73833;SHT30;62179;48.444;-4.464;2022-12-18T12:49:46;10.96;93.97
73833;SHT30;62179;48.444;-4.464;2022-12-18T12:52:40;10.99;93.84
73833;SHT30;62179;48.444;-4.464;2022-12-18T12:55:27;10.97;93.62
73833;SHT30;62179;48.444;-4.464;2022-12-18T12:58:10;11.00;93.48
73833;SHT30;62179;48.444;-4.464;2022-12-18T13:00:49;11.00;93.46
73833;SHT30;62179;48.444;-4.464;2022-12-18T13:03:45;11.00;93.35
73833;SHT30;62179;48.444;-4.464;2022-12-18T13:06:33;11.00;93.23
73833;SHT30;62179;48.444;-4.464;2022-12-18T13:09:01;11.06;93.28
73833;SHT30;62179;48.444;-4.464;2022-12-18T13:11:40;11.07;93.16
73833;SHT30;62179;48.444;-4.464;2022-12-18T13:14:28;11.10;93.11
73833;SHT30;62179;48.444;-4.464;2022-12-18T13:17:30;11.14;92.97
73833;SHT30;62179;48.444;-4.464;2022-12-18T13:20:10;11.19;92.98
73833;SHT30;62179;48.444;-4.464;2022-12-18T13:22:39;11.17;92.97
73833;SHT30;62179;48.444;-4.464;2022-12-18T13:25:31;11.20;93.07
73833;SHT30;62179;48.444;-4.464;2022-12-18T13:46:05;11.34;92.82
73833;SHT30;62179;48.444;-4.464;2022-12-18T13:48:35;11.32;92.69
73833;SHT30;62179;48.444;-4.464;2022-12-18T13:51:07;11.34;92.71
73833;SHT30;62179;48.444;-4.464;2022-12-18T13:53:42;11.35;92.59
73833;SHT30;62179;48.444;-4.464;2022-12-18T13:56:08;11.38;92.72
73833;SHT30;62179;48.444;-4.464;2022-12-18T13:58:34;11.40;92.66
73833;SHT30;62179;48.444;-4.464;2022-12-18T14:01:00;11.40;92.63
73833;SHT30;62179;48.444;-4.464;2022-12-18T14:03:28;11.40;92.63
73833;SHT30;62179;48.444;-4.464;2022-12-18T14:06:07;11.40;92.75
73833;SHT30;62179;48.444;-4.464;2022-12-18T14:08:38;11.40;92.57
73833;SHT30;62179;48.444;-4.464;2022-12-18T14:11:05;11.35;92.59
73833;SHT30;62179;48.444;-4.464;2022-12-18T14:13:41;11.38;92.52
73833;SHT30;62179;48.444;-4.464;2022-12-18T14:16:07;11.40;92.55
73833;SHT30;62179;48.444;-4.464;2022-12-18T14:23:45;11.40;92.52
73833;SHT30;62179;48.444;-4.464;2022-12-18T14:26:25;11.38;92.18
73833;SHT30;62179;48.444;-4.464;2022-12-18T14:28:54;11.41;92.22
73833;SHT30;62179;48.444;-4.464;2022-12-18T14:31:23;11.41;92.06
73833;SHT30;62179;48.444;-4.464;2022-12-18T14:33:49;11.44;92.19
73833;SHT30;62179;48.444;-4.464;2022-12-18T14:36:17;11.44;92.27
73833;SHT30;62179;48.444;-4.464;2022-12-18T14:38:48;11.44;92.17
73833;SHT30;62179;48.444;-4.464;2022-12-18T14:41:16;11.45;92.37
73833;SHT30;62179;48.444;-4.464;2022-12-18T14:43:44;11.50;92.24
73833;SHT30;62179;48.444;-4.464;2022-12-18T14:46:30;11.50;92.58
73833;SHT30;62179;48.444;-4.464;2022-12-18T14:48:59;11.54;92.51
73833;SHT30;62179;48.444;-4.464;2022-12-18T14:51:31;11.52;92.36
73833;SHT30;62179;48.444;-4.464;2022-12-18T14:54:02;11.52;92.35
73833;SHT30;62179;48.444;-4.464;2022-12-18T14:56:34;11.55;92.45
73833;SHT30;62179;48.444;-4.464;2022-12-18T14:59:05;11.61;92.49
73833;SHT30;62179;48.444;-4.464;2022-12-18T15:01:37;11.60;92.35
73833;SHT30;62179;48.444;-4.464;2022-12-18T15:04:04;11.61;92.39
73833;SHT30;62179;48.444;-4.464;2022-12-18T15:06:33;11.64;92.47
73833;SHT30;62179;48.444;-4.464;2022-12-18T15:09:03;11.65;92.30
73833;SHT30;62179;48.444;-4.464;2022-12-18T15:14:39;11.62;92.30
73833;SHT30;62179;48.444;-4.464;2022-12-18T15:17:22;11.65;92.39
73833;SHT30;62179;48.444;-4.464;2022-12-18T15:19:51;11.68;92.33
73833;SHT30;62179;48.444;-4.464;2022-12-18T15:22:32;11.65;92.14
73833;SHT30;62179;48.444;-4.464;2022-12-18T15:24:59;11.68;92.34
73833;SHT30;62179;48.444;-4.464;2022-12-18T15:27:36;11.68;92.17
73833;SHT30;62179;48.444;-4.464;2022-12-18T15:32:37;11.71;92.23
73833;SHT30;62179;48.444;-4.464;2022-12-18T15:37:35;11.71;92.94
73833;SHT30;62179;48.444;-4.464;2022-12-18T15:40:00;11.74;93.02
73833;SHT30;62179;48.444;-4.464;2022-12-18T15:42:28;11.77;93.07
73833;SHT30;62179;48.444;-4.464;2022-12-18T15:45:15;11.75;93.02
73833;SHT30;62179;48.444;-4.464;2022-12-18T15:47:43;11.78;93.02
73833;SHT30;62179;48.444;-4.464;2022-12-18T15:50:09;11.74;92.94
73833;SHT30;62179;48.444;-4.464;2022-12-18T15:52:46;11.77;92.73
73833;SHT30;62179;48.444;-4.464;2022-12-18T15:55:18;11.78;92.72
73833;SHT30;62179;48.444;-4.464;2022-12-18T15:58:04;11.78;92.56
73833;SHT30;62179;48.444;-4.464;2022-12-18T16:00:30;11.79;92.41
73833;SHT30;62179;48.444;-4.464;2022-12-18T16:02:55;11.75;92.24
73833;SHT30;62179;48.444;-4.464;2022-12-18T16:05:21;11.79;92.13
73833;SHT30;62179;48.444;-4.464;2022-12-18T16:07:47;11.78;92.10
73833;SHT30;62179;48.444;-4.464;2022-12-18T16:10:13;11.77;92.11
73833;SHT30;62179;48.444;-4.464;2022-12-18T16:12:40;11.78;91.80
73833;SHT30;62179;48.444;-4.464;2022-12-18T16:15:07;11.78;91.97
73833;SHT30;62179;48.444;-4.464;2022-12-18T16:17:34;11.78;91.86
73833;SHT30;62179;48.444;-4.464;2022-12-18T16:20:00;11.79;92.03
73833;SHT30;62179;48.444;-4.464;2022-12-18T16:22:28;11.81;92.06
73833;SHT30;62179;48.444;-4.464;2022-12-18T16:24:55;11.81;91.62
73833;SHT30;62179;48.444;-4.464;2022-12-18T16:27:23;11.81;91.60
73833;SHT30;62179;48.444;-4.464;2022-12-18T16:29:49;11.83;91.67
73833;SHT30;62179;48.444;-4.464;2022-12-18T16:32:17;11.85;91.68
73833;SHT30;62179;48.444;-4.464;2022-12-18T16:34:43;11.86;91.66
73833;SHT30;62179;48.444;-4.464;2022-12-18T16:37:16;11.83;91.53
73833;SHT30;62179;48.444;-4.464;2022-12-18T16:40:01;11.93;91.41
73833;SHT30;62179;48.444;-4.464;2022-12-18T16:42:26;11.96;91.63
73833;SHT30;62179;48.444;-4.464;2022-12-18T16:44:52;11.98;91.64
73833;SHT30;62179;48.444;-4.464;2022-12-18T16:47:21;12.02;91.45
73833;SHT30;62179;48.444;-4.464;2022-12-18T16:49:50;12.06;91.67
73833;SHT30;62179;48.444;-4.464;2022-12-18T16:52:35;12.06;91.19
73833;SHT30;62179;48.444;-4.464;2022-12-18T16:55:06;12.09;91.39
73833;SHT30;62179;48.444;-4.464;2022-12-18T16:57:34;12.13;91.41
73833;SHT30;62179;48.444;-4.464;2022-12-18T17:00:29;12.19;91.46
73833;SHT30;62179;48.444;-4.464;2022-12-18T17:02:55;12.18;91.43
73833;SHT30;62179;48.444;-4.464;2022-12-18T17:05:46;12.23;91.45
73833;SHT30;62179;48.444;-4.464;2022-12-18T17:08:12;12.29;90.95
73833;SHT30;62179;48.444;-4.464;2022-12-18T17:10:37;12.29;91.22
73833;SHT30;62179;48.444;-4.464;2022-12-18T17:13:35;12.32;91.02
73833;SHT30;62179;48.444;-4.464;2022-12-18T17:16:10;12.33;90.68
73833;SHT30;62179;48.444;-4.464;2022-12-18T17:18:35;12.34;90.90
73833;SHT30;62179;48.444;-4.464;2022-12-18T17:21:21;12.36;90.77
73833;SHT30;62179;48.444;-4.464;2022-12-18T17:24:35;12.36;90.62
73833;SHT30;62179;48.444;-4.464;2022-12-18T17:27:33;12.37;90.68
73833;SHT30;62179;48.444;-4.464;2022-12-18T17:30:02;12.39;90.60
73833;SHT30;62179;48.444;-4.464;2022-12-18T17:32:49;12.41;90.40
73833;SHT30;62179;48.444;-4.464;2022-12-18T17:35:15;12.46;90.41
73833;SHT30;62179;48.444;-4.464;2022-12-18T17:38:05;12.46;90.55
73833;SHT30;62179;48.444;-4.464;2022-12-18T17:40:53;12.51;90.77
73833;SHT30;62179;48.444;-4.464;2022-12-18T17:43:18;12.56;90.64
73833;SHT30;62179;48.444;-4.464;2022-12-18T17:45:51;12.54;90.41
73833;SHT30;62179;48.444;-4.464;2022-12-18T17:48:17;12.58;90.49
73833;SHT30;62179;48.444;-4.464;2022-12-18T17:50:45;12.60;90.33
73833;SHT30;62179;48.444;-4.464;2022-12-18T17:53:31;12.63;90.10
73833;SHT30;62179;48.444;-4.464;2022-12-18T17:56:17;12.64;90.55
73833;SHT30;62179;48.444;-4.464;2022-12-18T17:58:47;12.65;90.50
73833;SHT30;62179;48.444;-4.464;2022-12-18T18:01:29;12.70;90.37
73833;SHT30;62179;48.444;-4.464;2022-12-18T18:03:54;12.70;90.39
73833;SHT30;62179;48.444;-4.464;2022-12-18T18:06:23;12.68;90.43
73833;SHT30;62179;48.444;-4.464;2022-12-18T18:09:14;12.70;90.55
73833;SHT30;62179;48.444;-4.464;2022-12-18T18:12:26;12.74;90.56
73833;SHT30;62179;48.444;-4.464;2022-12-18T18:15:59;12.74;90.57
73833;SHT30;62179;48.444;-4.464;2022-12-18T18:18:25;12.74;90.77
73833;SHT30;62179;48.444;-4.464;2022-12-18T18:20:50;12.74;90.86
73833;SHT30;62179;48.444;-4.464;2022-12-18T18:23:16;12.77;90.61
73833;SHT30;62179;48.444;-4.464;2022-12-18T18:25:41;12.77;90.60
73833;SHT30;62179;48.444;-4.464;2022-12-18T18:28:06;12.77;90.59
73833;SHT30;62179;48.444;-4.464;2022-12-18T18:30:32;12.76;90.64
73833;SHT30;62179;48.444;-4.464;2022-12-18T18:32:57;12.80;90.70
73833;SHT30;62179;48.444;-4.464;2022-12-18T18:35:23;12.81;90.80
73833;SHT30;62179;48.444;-4.464;2022-12-18T18:37:48;12.80;90.66
73833;SHT30;62179;48.444;-4.464;2022-12-18T18:40:14;12.80;90.76
73833;SHT30;62179;48.444;-4.464;2022-12-18T18:42:39;12.80;90.66
73833;SHT30;62179;48.444;-4.464;2022-12-18T18:45:05;12.80;90.69
73833;SHT30;62179;48.444;-4.464;2022-12-18T18:47:30;12.83;90.44
73833;SHT30;62179;48.444;-4.464;2022-12-18T18:49:56;12.81;90.15
73833;SHT30;62179;48.444;-4.464;2022-12-18T18:52:21;12.83;90.46
73833;SHT30;62179;48.444;-4.464;2022-12-18T18:54:47;12.85;90.34
73833;SHT30;62179;48.444;-4.464;2022-12-18T18:57:14;12.88;90.10
73833;SHT30;62179;48.444;-4.464;2022-12-18T18:59:40;12.87;90.18
73833;SHT30;62179;48.444;-4.464;2022-12-18T19:02:08;12.85;90.11
73833;SHT30;62179;48.444;-4.464;2022-12-18T19:04:33;12.91;90.31
73833;SHT30;62179;48.444;-4.464;2022-12-18T19:06:59;12.94;90.55
73833;SHT30;62179;48.444;-4.464;2022-12-18T19:09:24;12.92;90.49
73833;SHT30;62179;48.444;-4.464;2022-12-18T19:11:49;12.92;90.10
73833;SHT30;62179;48.444;-4.464;2022-12-18T19:14:34;12.98;90.30
73833;SHT30;62179;48.444;-4.464;2022-12-18T19:16:59;12.97;90.20
73833;SHT30;62179;48.444;-4.464;2022-12-18T19:19:24;12.97;90.05
73833;SHT30;62179;48.444;-4.464;2022-12-18T19:21:51;12.97;89.86
73833;SHT30;62179;48.444;-4.464;2022-12-18T19:24:16;12.98;90.16
73833;SHT30;62179;48.444;-4.464;2022-12-18T19:26:44;12.98;89.89
73833;SHT30;62179;48.444;-4.464;2022-12-18T19:29:10;12.99;89.95
73833;SHT30;62179;48.444;-4.464;2022-12-18T19:31:36;13.01;89.88
73833;SHT30;62179;48.444;-4.464;2022-12-18T19:34:04;13.02;89.87
73833;SHT30;62179;48.444;-4.464;2022-12-18T19:36:30;13.04;89.68
73833;SHT30;62179;48.444;-4.464;2022-12-18T19:38:58;13.05;90.07
73833;SHT30;62179;48.444;-4.464;2022-12-18T19:41:25;13.05;89.99
73833;SHT30;62179;48.444;-4.464;2022-12-18T19:43:51;13.05;89.62
73833;SHT30;62179;48.444;-4.464;2022-12-18T19:46:19;13.07;89.81
73833;SHT30;62179;48.444;-4.464;2022-12-18T19:48:45;13.09;89.72
73833;SHT30;62179;48.444;-4.464;2022-12-18T19:51:23;13.08;89.69
73833;SHT30;62179;48.444;-4.464;2022-12-18T19:53:50;13.09;89.56
73833;SHT30;62179;48.444;-4.464;2022-12-18T19:56:18;13.09;89.83
73833;SHT30;62179;48.444;-4.464;2022-12-18T19:58:44;13.14;89.62
73833;SHT30;62179;48.444;-4.464;2022-12-18T20:01:11;13.15;89.80
73833;SHT30;62179;48.444;-4.464;2022-12-18T20:03:37;13.12;89.74
73833;SHT30;62179;48.444;-4.464;2022-12-18T20:06:21;13.15;89.53
73833;SHT30;62179;48.444;-4.464;2022-12-18T20:08:48;13.18;89.44
73833;SHT30;62179;48.444;-4.464;2022-12-18T20:11:14;13.18;89.52
73833;SHT30;62179;48.444;-4.464;2022-12-18T20:13:39;13.19;89.67
73833;SHT30;62179;48.444;-4.464;2022-12-18T20:16:05;13.23;89.25
73833;SHT30;62179;48.444;-4.464;2022-12-18T20:18:30;13.18;89.50
73833;SHT30;62179;48.444;-4.464;2022-12-18T20:20:56;13.18;89.83
73833;SHT30;62179;48.444;-4.464;2022-12-18T20:23:21;13.22;89.52
73833;SHT30;62179;48.444;-4.464;2022-12-18T20:25:47;13.20;89.46
73833;SHT30;62179;48.444;-4.464;2022-12-18T20:28:13;13.19;89.21
73833;SHT30;62179;48.444;-4.464;2022-12-18T20:30:39;13.23;89.60
73833;SHT30;62179;48.444;-4.464;2022-12-18T20:33:05;13.23;89.02
73833;SHT30;62179;48.444;-4.464;2022-12-18T20:35:31;13.26;89.33
73833;SHT30;62179;48.444;-4.464;2022-12-18T20:37:57;13.25;89.15
73833;SHT30;62179;48.444;-4.464;2022-12-18T20:40:22;13.26;89.39
73833;SHT30;62179;48.444;-4.464;2022-12-18T20:42:48;13.28;89.25
73833;SHT30;62179;48.444;-4.464;2022-12-18T20:45:13;13.28;89.51
73833;SHT30;62179;48.444;-4.464;2022-12-18T20:47:39;13.30;89.06
73833;SHT30;62179;48.444;-4.464;2022-12-18T20:50:05;13.32;89.07
73833;SHT30;62179;48.444;-4.464;2022-12-18T20:52:30;13.32;89.25
73833;SHT30;62179;48.444;-4.464;2022-12-18T20:54:56;13.30;89.46
73833;SHT30;62179;48.444;-4.464;2022-12-18T20:57:22;13.32;89.12
73833;SHT30;62179;48.444;-4.464;2022-12-18T20:59:48;13.34;89.13
73833;SHT30;62179;48.444;-4.464;2022-12-18T21:02:13;13.32;89.17
73833;SHT30;62179;48.444;-4.464;2022-12-18T21:04:38;13.30;89.41
73833;SHT30;62179;48.444;-4.464;2022-12-18T21:07:04;13.34;89.58
73833;SHT30;62179;48.444;-4.464;2022-12-18T21:09:30;13.32;89.57
73833;SHT30;62179;48.444;-4.464;2022-12-18T21:11:56;13.30;89.49
73833;SHT30;62179;48.444;-4.464;2022-12-18T21:14:41;13.32;89.44
73833;SHT30;62179;48.444;-4.464;2022-12-18T21:17:07;13.32;89.62
73833;SHT30;62179;48.444;-4.464;2022-12-18T21:19:32;13.29;89.42
73833;SHT30;62179;48.444;-4.464;2022-12-18T21:21:57;13.30;89.71
73833;SHT30;62179;48.444;-4.464;2022-12-18T21:24:23;13.29;89.48
73833;SHT30;62179;48.444;-4.464;2022-12-18T21:26:52;13.34;89.29
73833;SHT30;62179;48.444;-4.464;2022-12-18T21:29:20;13.32;89.59
73833;SHT30;62179;48.444;-4.464;2022-12-18T21:31:47;13.32;89.30
73833;SHT30;62179;48.444;-4.464;2022-12-18T21:34:18;13.29;89.48
73833;SHT30;62179;48.444;-4.464;2022-12-18T21:36:45;13.34;89.70
73833;SHT30;62179;48.444;-4.464;2022-12-18T21:39:12;13.30;89.82
73833;SHT30;62179;48.444;-4.464;2022-12-18T21:41:37;13.30;89.31
73833;SHT30;62179;48.444;-4.464;2022-12-18T21:44:22;13.34;89.75
73833;SHT30;62179;48.444;-4.464;2022-12-18T21:46:48;13.36;89.45
73833;SHT30;62179;48.444;-4.464;2022-12-18T21:49:16;13.35;88.99
73833;SHT30;62179;48.444;-4.464;2022-12-18T21:51:43;13.36;88.95
73833;SHT30;62179;48.444;-4.464;2022-12-18T21:54:09;13.38;89.34
73833;SHT30;62179;48.444;-4.464;2022-12-18T21:59:15;13.42;88.70
73833;SHT30;62179;48.444;-4.464;2022-12-18T22:01:40;13.43;89.15
73833;SHT30;62179;48.444;-4.464;2022-12-18T22:04:06;13.42;88.99
